sensor_id;sensor_type;location;lat;lon;timestamp;P1;durP1;ratioP1;P2;durP2;ratioP2
69841;SDS011;57138;51.326;-0.068;2022-07-29T00:00:08;11.45;;;2.28;;
69841;SDS011;57138;51.326;-0.068;2022-07-29T00:02:34;8.23;;;1.75;;
69841;SDS011;57138;51.326;-0.068;2022-07-29T00:05:02;4.63;;;1.92;;
69841;SDS011;57138;51.326;-0.068;2022-07-29T00:07:29;5.82;;;1.83;;
69841;SDS011;57138;51.326;-0.068;2022-07-29T00:09:55;9.68;;;2.00;;
69841;SDS011;57138;51.326;-0.068;2022-07-29T00:12:21;8.55;;;2.00;;
69841;SDS011;57138;51.326;-0.068;2022-07-29T00:14:49;6.03;;;1.85;;
69841;SDS011;57138;51.326;-0.068;2022-07-29T00:17:14;7.20;;;2.10;;
69841;SDS011;57138;51.326;-0.068;2022-07-29T00:19:40;8.15;;;2.03;;
69841;SDS011;57138;51.326;-0.068;2022-07-29T00:22:05;6.35;;;2.03;;
69841;SDS011;57138;51.326;-0.068;2022-07-29T00:24:31;8.75;;;2.10;;
69841;SDS011;57138;51.326;-0.068;2022-07-29T00:26:56;7.28;;;1.90;;
69841;SDS011;57138;51.326;-0.068;2022-07-29T00:29:22;6.80;;;1.88;;
69841;SDS011;57138;51.326;-0.068;2022-07-29T00:31:47;10.70;;;2.25;;
69841;SDS011;57138;51.326;-0.068;2022-07-29T00:34:13;7.45;;;1.90;;
69841;SDS011;57138;51.326;-0.068;2022-07-29T00:36:57;7.97;;;2.28;;
69841;SDS011;57138;51.326;-0.068;2022-07-29T00:39:23;5.63;;;1.75;;
69841;SDS011;57138;51.326;-0.068;2022-07-29T00:41:48;11.30;;;2.55;;
69841;SDS011;57138;51.326;-0.068;2022-07-29T00:44:14;9.18;;;2.10;;
69841;SDS011;57138;51.326;-0.068;2022-07-29T00:46:40;5.35;;;1.98;;
69841;SDS011;57138;51.326;-0.068;2022-07-29T00:49:06;6.47;;;2.10;;
69841;SDS011;57138;51.326;-0.068;2022-07-29T00:51:32;8.25;;;2.30;;
69841;SDS011;57138;51.326;-0.068;2022-07-29T00:54:00;8.82;;;1.88;;
69841;SDS011;57138;51.326;-0.068;2022-07-29T00:56:26;8.13;;;2.10;;
69841;SDS011;57138;51.326;-0.068;2022-07-29T00:58:58;4.13;;;1.67;;
69841;SDS011;57138;51.326;-0.068;2022-07-29T01:01:25;6.22;;;1.60;;
69841;SDS011;57138;51.326;-0.068;2022-07-29T01:03:51;9.32;;;2.40;;
69841;SDS011;57138;51.326;-0.068;2022-07-29T01:06:17;6.35;;;2.10;;
69841;SDS011;57138;51.326;-0.068;2022-07-29T01:08:44;10.40;;;2.03;;
69841;SDS011;57138;51.326;-0.068;2022-07-29T01:11:11;6.20;;;2.08;;
69841;SDS011;57138;51.326;-0.068;2022-07-29T01:13:37;6.78;;;2.05;;
69841;SDS011;57138;51.326;-0.068;2022-07-29T01:16:05;6.15;;;2.00;;
69841;SDS011;57138;51.326;-0.068;2022-07-29T01:18:39;4.20;;;1.73;;
69841;SDS011;57138;51.326;-0.068;2022-07-29T01:34:31;7.40;;;2.20;;
69841;SDS011;57138;51.326;-0.068;2022-07-29T01:37:08;5.60;;;1.90;;
69841;SDS011;57138;51.326;-0.068;2022-07-29T01:39:43;6.85;;;2.20;;
69841;SDS011;57138;51.326;-0.068;2022-07-29T01:42:14;9.32;;;2.58;;
69841;SDS011;57138;51.326;-0.068;2022-07-29T01:50:56;8.65;;;1.77;;
69841;SDS011;57138;51.326;-0.068;2022-07-29T01:53:41;8.73;;;1.90;;
69841;SDS011;57138;51.326;-0.068;2022-07-29T01:56:16;9.23;;;2.83;;
69841;SDS011;57138;51.326;-0.068;2022-07-29T01:58:43;7.03;;;2.30;;
69841;SDS011;57138;51.326;-0.068;2022-07-29T02:01:11;7.47;;;2.75;;
69841;SDS011;57138;51.326;-0.068;2022-07-29T02:03:42;10.23;;;2.50;;
69841;SDS011;57138;51.326;-0.068;2022-07-29T02:06:10;4.88;;;1.85;;
69841;SDS011;57138;51.326;-0.068;2022-07-29T02:08:37;7.65;;;2.20;;
69841;SDS011;57138;51.326;-0.068;2022-07-29T02:11:04;10.13;;;2.17;;
69841;SDS011;57138;51.326;-0.068;2022-07-29T02:13:31;5.47;;;2.33;;
69841;SDS011;57138;51.326;-0.068;2022-07-29T02:16:01;8.60;;;2.63;;
69841;SDS011;57138;51.326;-0.068;2022-07-29T02:18:28;13.32;;;3.22;;
69841;SDS011;57138;51.326;-0.068;2022-07-29T02:20:56;11.35;;;2.45;;
69841;SDS011;57138;51.326;-0.068;2022-07-29T02:23:24;7.28;;;2.05;;
69841;SDS011;57138;51.326;-0.068;2022-07-29T02:25:52;9.45;;;2.50;;
69841;SDS011;57138;51.326;-0.068;2022-07-29T02:28:20;6.03;;;2.13;;
69841;SDS011;57138;51.326;-0.068;2022-07-29T02:30:48;6.78;;;1.90;;
69841;SDS011;57138;51.326;-0.068;2022-07-29T02:33:17;12.40;;;2.05;;
69841;SDS011;57138;51.326;-0.068;2022-07-29T02:35:45;10.00;;;2.13;;
69841;SDS011;57138;51.326;-0.068;2022-07-29T02:38:13;6.82;;;2.42;;
69841;SDS011;57138;51.326;-0.068;2022-07-29T02:41:09;6.00;;;2.45;;
69841;SDS011;57138;51.326;-0.068;2022-07-29T02:43:37;5.72;;;2.13;;
69841;SDS011;57138;51.326;-0.068;2022-07-29T02:46:04;7.68;;;2.15;;
69841;SDS011;57138;51.326;-0.068;2022-07-29T02:48:41;7.22;;;2.20;;
69841;SDS011;57138;51.326;-0.068;2022-07-29T02:51:33;8.50;;;1.88;;
69841;SDS011;57138;51.326;-0.068;2022-07-29T02:54:20;8.27;;;2.35;;
69841;SDS011;57138;51.326;-0.068;2022-07-29T02:57:03;4.72;;;1.90;;
69841;SDS011;57138;51.326;-0.068;2022-07-29T02:59:44;10.23;;;2.40;;
69841;SDS011;57138;51.326;-0.068;2022-07-29T03:02:13;6.30;;;2.70;;
69841;SDS011;57138;51.326;-0.068;2022-07-29T03:04:39;9.65;;;2.55;;
69841;SDS011;57138;51.326;-0.068;2022-07-29T03:07:07;6.25;;;2.20;;
69841;SDS011;57138;51.326;-0.068;2022-07-29T03:09:35;5.68;;;1.90;;
69841;SDS011;57138;51.326;-0.068;2022-07-29T03:12:03;7.60;;;2.38;;
69841;SDS011;57138;51.326;-0.068;2022-07-29T03:14:30;7.15;;;2.05;;
69841;SDS011;57138;51.326;-0.068;2022-07-29T03:16:57;9.02;;;2.83;;
69841;SDS011;57138;51.326;-0.068;2022-07-29T03:19:23;6.72;;;2.17;;
69841;SDS011;57138;51.326;-0.068;2022-07-29T03:21:48;5.53;;;2.00;;
69841;SDS011;57138;51.326;-0.068;2022-07-29T03:24:27;7.45;;;2.60;;
69841;SDS011;57138;51.326;-0.068;2022-07-29T03:26:55;6.85;;;1.98;;
69841;SDS011;57138;51.326;-0.068;2022-07-29T03:29:21;7.25;;;2.17;;
69841;SDS011;57138;51.326;-0.068;2022-07-29T03:31:47;6.32;;;2.60;;
69841;SDS011;57138;51.326;-0.068;2022-07-29T03:34:12;9.40;;;2.50;;
69841;SDS011;57138;51.326;-0.068;2022-07-29T03:36:38;7.60;;;2.60;;
69841;SDS011;57138;51.326;-0.068;2022-07-29T03:39:03;5.32;;;2.10;;
69841;SDS011;57138;51.326;-0.068;2022-07-29T03:41:30;7.55;;;2.42;;
69841;SDS011;57138;51.326;-0.068;2022-07-29T03:43:57;6.50;;;2.38;;
69841;SDS011;57138;51.326;-0.068;2022-07-29T03:46:24;5.57;;;2.70;;
69841;SDS011;57138;51.326;-0.068;2022-07-29T03:48:55;8.00;;;2.45;;
69841;SDS011;57138;51.326;-0.068;2022-07-29T03:51:28;9.05;;;2.90;;
69841;SDS011;57138;51.326;-0.068;2022-07-29T03:53:54;5.07;;;2.30;;
69841;SDS011;57138;51.326;-0.068;2022-07-29T03:56:20;6.40;;;2.35;;
69841;SDS011;57138;51.326;-0.068;2022-07-29T03:58:48;8.57;;;2.72;;
69841;SDS011;57138;51.326;-0.068;2022-07-29T04:01:16;9.50;;;2.53;;
69841;SDS011;57138;51.326;-0.068;2022-07-29T04:03:43;6.03;;;2.83;;
69841;SDS011;57138;51.326;-0.068;2022-07-29T04:06:10;6.85;;;2.63;;
69841;SDS011;57138;51.326;-0.068;2022-07-29T04:08:36;12.25;;;2.88;;
69841;SDS011;57138;51.326;-0.068;2022-07-29T04:11:02;5.90;;;2.88;;
69841;SDS011;57138;51.326;-0.068;2022-07-29T04:13:28;11.45;;;2.95;;
69841;SDS011;57138;51.326;-0.068;2022-07-29T04:15:54;8.30;;;3.55;;
69841;SDS011;57138;51.326;-0.068;2022-07-29T04:18:20;10.50;;;3.33;;
69841;SDS011;57138;51.326;-0.068;2022-07-29T04:20:45;7.22;;;2.72;;
69841;SDS011;57138;51.326;-0.068;2022-07-29T04:23:11;5.90;;;2.60;;
69841;SDS011;57138;51.326;-0.068;2022-07-29T04:25:37;6.43;;;2.97;;
69841;SDS011;57138;51.326;-0.068;2022-07-29T04:28:03;7.90;;;2.50;;
69841;SDS011;57138;51.326;-0.068;2022-07-29T04:30:29;8.10;;;2.95;;
69841;SDS011;57138;51.326;-0.068;2022-07-29T04:32:56;7.53;;;2.63;;
69841;SDS011;57138;51.326;-0.068;2022-07-29T04:35:21;6.88;;;2.70;;
69841;SDS011;57138;51.326;-0.068;2022-07-29T04:37:46;12.60;;;4.03;;
69841;SDS011;57138;51.326;-0.068;2022-07-29T04:40:12;13.32;;;2.97;;
69841;SDS011;57138;51.326;-0.068;2022-07-29T04:42:38;12.05;;;3.47;;
69841;SDS011;57138;51.326;-0.068;2022-07-29T04:45:04;8.40;;;3.05;;
69841;SDS011;57138;51.326;-0.068;2022-07-29T04:47:30;6.28;;;2.90;;
69841;SDS011;57138;51.326;-0.068;2022-07-29T04:49:58;9.65;;;2.70;;
69841;SDS011;57138;51.326;-0.068;2022-07-29T04:52:28;11.43;;;3.30;;
69841;SDS011;57138;51.326;-0.068;2022-07-29T04:54:53;6.30;;;3.55;;
69841;SDS011;57138;51.326;-0.068;2022-07-29T04:57:19;8.95;;;2.97;;
69841;SDS011;57138;51.326;-0.068;2022-07-29T04:59:44;9.25;;;3.40;;
69841;SDS011;57138;51.326;-0.068;2022-07-29T05:02:09;8.48;;;3.70;;
69841;SDS011;57138;51.326;-0.068;2022-07-29T05:04:35;7.68;;;3.45;;
69841;SDS011;57138;51.326;-0.068;2022-07-29T05:07:00;12.30;;;3.85;;
69841;SDS011;57138;51.326;-0.068;2022-07-29T05:09:26;10.18;;;3.35;;
69841;SDS011;57138;51.326;-0.068;2022-07-29T05:11:51;12.35;;;3.15;;
69841;SDS011;57138;51.326;-0.068;2022-07-29T05:14:17;9.73;;;3.70;;
69841;SDS011;57138;51.326;-0.068;2022-07-29T05:16:42;7.05;;;3.05;;
69841;SDS011;57138;51.326;-0.068;2022-07-29T05:19:08;8.52;;;3.60;;
69841;SDS011;57138;51.326;-0.068;2022-07-29T05:21:34;7.85;;;3.83;;
69841;SDS011;57138;51.326;-0.068;2022-07-29T05:23:59;8.77;;;3.88;;
69841;SDS011;57138;51.326;-0.068;2022-07-29T05:26:24;9.77;;;3.95;;
69841;SDS011;57138;51.326;-0.068;2022-07-29T05:28:50;10.25;;;4.90;;
69841;SDS011;57138;51.326;-0.068;2022-07-29T05:31:15;12.90;;;3.42;;
69841;SDS011;57138;51.326;-0.068;2022-07-29T05:33:41;12.63;;;3.50;;
69841;SDS011;57138;51.326;-0.068;2022-07-29T05:36:07;9.10;;;3.20;;
69841;SDS011;57138;51.326;-0.068;2022-07-29T05:38:33;15.07;;;3.60;;
69841;SDS011;57138;51.326;-0.068;2022-07-29T05:40:59;7.82;;;2.92;;
69841;SDS011;57138;51.326;-0.068;2022-07-29T05:43:26;6.50;;;3.00;;
69841;SDS011;57138;51.326;-0.068;2022-07-29T05:45:52;15.50;;;3.97;;
69841;SDS011;57138;51.326;-0.068;2022-07-29T05:48:18;10.23;;;2.50;;
69841;SDS011;57138;51.326;-0.068;2022-07-29T05:50:43;7.82;;;2.75;;
69841;SDS011;57138;51.326;-0.068;2022-07-29T05:53:09;8.20;;;2.78;;
69841;SDS011;57138;51.326;-0.068;2022-07-29T05:55:34;10.75;;;2.42;;
69841;SDS011;57138;51.326;-0.068;2022-07-29T05:57:59;8.50;;;2.85;;
69841;SDS011;57138;51.326;-0.068;2022-07-29T06:00:25;11.15;;;2.92;;
69841;SDS011;57138;51.326;-0.068;2022-07-29T06:02:50;6.93;;;2.45;;
69841;SDS011;57138;51.326;-0.068;2022-07-29T06:05:16;10.15;;;2.63;;
69841;SDS011;57138;51.326;-0.068;2022-07-29T06:07:42;7.68;;;2.53;;
69841;SDS011;57138;51.326;-0.068;2022-07-29T06:10:07;11.32;;;2.72;;
69841;SDS011;57138;51.326;-0.068;2022-07-29T06:12:34;7.30;;;2.22;;
69841;SDS011;57138;51.326;-0.068;2022-07-29T06:14:59;12.32;;;3.08;;
69841;SDS011;57138;51.326;-0.068;2022-07-29T06:17:25;20.33;;;3.92;;
69841;SDS011;57138;51.326;-0.068;2022-07-29T06:19:50;11.05;;;2.53;;
69841;SDS011;57138;51.326;-0.068;2022-07-29T06:22:16;9.00;;;2.45;;
69841;SDS011;57138;51.326;-0.068;2022-07-29T06:24:42;11.82;;;2.33;;
69841;SDS011;57138;51.326;-0.068;2022-07-29T06:27:09;11.07;;;2.75;;
69841;SDS011;57138;51.326;-0.068;2022-07-29T06:29:35;8.70;;;2.35;;
69841;SDS011;57138;51.326;-0.068;2022-07-29T06:32:01;6.30;;;2.33;;
69841;SDS011;57138;51.326;-0.068;2022-07-29T06:34:27;12.40;;;2.78;;
69841;SDS011;57138;51.326;-0.068;2022-07-29T06:36:53;11.25;;;2.72;;
69841;SDS011;57138;51.326;-0.068;2022-07-29T06:39:18;13.93;;;3.08;;
69841;SDS011;57138;51.326;-0.068;2022-07-29T06:41:47;12.40;;;2.80;;
69841;SDS011;57138;51.326;-0.068;2022-07-29T06:44:14;11.73;;;3.97;;
69841;SDS011;57138;51.326;-0.068;2022-07-29T06:46:40;10.75;;;3.15;;
69841;SDS011;57138;51.326;-0.068;2022-07-29T06:49:06;8.82;;;4.03;;
69841;SDS011;57138;51.326;-0.068;2022-07-29T06:51:32;11.77;;;3.80;;
69841;SDS011;57138;51.326;-0.068;2022-07-29T06:53:58;15.60;;;3.38;;
69841;SDS011;57138;51.326;-0.068;2022-07-29T06:56:24;10.93;;;2.83;;
69841;SDS011;57138;51.326;-0.068;2022-07-29T06:58:50;13.85;;;3.58;;
69841;SDS011;57138;51.326;-0.068;2022-07-29T07:01:15;13.93;;;3.10;;
69841;SDS011;57138;51.326;-0.068;2022-07-29T07:03:41;10.98;;;3.88;;
69841;SDS011;57138;51.326;-0.068;2022-07-29T07:06:07;7.43;;;2.42;;
69841;SDS011;57138;51.326;-0.068;2022-07-29T07:08:32;10.63;;;2.90;;
69841;SDS011;57138;51.326;-0.068;2022-07-29T07:10:58;9.00;;;3.42;;
69841;SDS011;57138;51.326;-0.068;2022-07-29T07:13:24;11.82;;;2.55;;
69841;SDS011;57138;51.326;-0.068;2022-07-29T07:15:50;12.40;;;2.75;;
69841;SDS011;57138;51.326;-0.068;2022-07-29T07:18:16;14.90;;;2.40;;
69841;SDS011;57138;51.326;-0.068;2022-07-29T07:20:43;15.95;;;3.05;;
69841;SDS011;57138;51.326;-0.068;2022-07-29T07:23:10;8.93;;;3.00;;
69841;SDS011;57138;51.326;-0.068;2022-07-29T07:25:35;11.93;;;2.50;;
69841;SDS011;57138;51.326;-0.068;2022-07-29T07:28:01;15.10;;;4.43;;
69841;SDS011;57138;51.326;-0.068;2022-07-29T07:30:28;7.40;;;2.67;;
69841;SDS011;57138;51.326;-0.068;2022-07-29T07:32:54;7.85;;;2.20;;
69841;SDS011;57138;51.326;-0.068;2022-07-29T07:35:20;9.88;;;3.13;;
69841;SDS011;57138;51.326;-0.068;2022-07-29T07:37:46;12.48;;;3.63;;
69841;SDS011;57138;51.326;-0.068;2022-07-29T07:40:12;7.78;;;2.72;;
69841;SDS011;57138;51.326;-0.068;2022-07-29T07:42:39;13.73;;;2.83;;
69841;SDS011;57138;51.326;-0.068;2022-07-29T07:45:05;14.52;;;5.18;;
69841;SDS011;57138;51.326;-0.068;2022-07-29T07:47:34;10.52;;;2.67;;
69841;SDS011;57138;51.326;-0.068;2022-07-29T07:50:00;11.07;;;2.75;;
69841;SDS011;57138;51.326;-0.068;2022-07-29T07:52:25;8.18;;;2.72;;
69841;SDS011;57138;51.326;-0.068;2022-07-29T07:54:51;14.93;;;2.97;;
69841;SDS011;57138;51.326;-0.068;2022-07-29T07:57:16;6.35;;;2.00;;
69841;SDS011;57138;51.326;-0.068;2022-07-29T07:59:42;13.32;;;2.72;;
69841;SDS011;57138;51.326;-0.068;2022-07-29T08:02:08;8.63;;;2.50;;
69841;SDS011;57138;51.326;-0.068;2022-07-29T08:04:34;9.45;;;2.50;;
69841;SDS011;57138;51.326;-0.068;2022-07-29T08:07:01;14.82;;;2.67;;
69841;SDS011;57138;51.326;-0.068;2022-07-29T08:09:28;7.18;;;1.92;;
69841;SDS011;57138;51.326;-0.068;2022-07-29T08:11:54;10.40;;;1.83;;
69841;SDS011;57138;51.326;-0.068;2022-07-29T08:14:20;12.93;;;2.35;;
69841;SDS011;57138;51.326;-0.068;2022-07-29T08:16:46;8.15;;;2.20;;
69841;SDS011;57138;51.326;-0.068;2022-07-29T08:19:12;4.43;;;1.42;;
69841;SDS011;57138;51.326;-0.068;2022-07-29T08:21:38;7.25;;;1.60;;
69841;SDS011;57138;51.326;-0.068;2022-07-29T08:24:04;8.82;;;2.70;;
69841;SDS011;57138;51.326;-0.068;2022-07-29T08:26:48;10.02;;;2.00;;
69841;SDS011;57138;51.326;-0.068;2022-07-29T08:29:14;11.32;;;1.70;;
69841;SDS011;57138;51.326;-0.068;2022-07-29T08:31:40;5.70;;;1.95;;
69841;SDS011;57138;51.326;-0.068;2022-07-29T08:34:06;8.02;;;1.83;;
69841;SDS011;57138;51.326;-0.068;2022-07-29T08:36:32;11.98;;;2.25;;
69841;SDS011;57138;51.326;-0.068;2022-07-29T08:38:59;6.07;;;1.92;;
69841;SDS011;57138;51.326;-0.068;2022-07-29T08:41:25;6.15;;;2.03;;
69841;SDS011;57138;51.326;-0.068;2022-07-29T08:43:51;5.50;;;1.55;;
69841;SDS011;57138;51.326;-0.068;2022-07-29T08:46:17;7.90;;;1.40;;
69841;SDS011;57138;51.326;-0.068;2022-07-29T08:48:44;8.43;;;1.67;;
69841;SDS011;57138;51.326;-0.068;2022-07-29T08:51:14;5.05;;;1.08;;
69841;SDS011;57138;51.326;-0.068;2022-07-29T08:53:42;10.68;;;1.60;;
69841;SDS011;57138;51.326;-0.068;2022-07-29T08:56:12;13.68;;;2.85;;
69841;SDS011;57138;51.326;-0.068;2022-07-29T08:58:39;8.13;;;1.63;;
69841;SDS011;57138;51.326;-0.068;2022-07-29T09:01:06;6.35;;;2.17;;
69841;SDS011;57138;51.326;-0.068;2022-07-29T09:03:34;10.57;;;2.00;;
69841;SDS011;57138;51.326;-0.068;2022-07-29T09:06:03;6.65;;;1.90;;
69841;SDS011;57138;51.326;-0.068;2022-07-29T09:08:30;9.48;;;1.83;;
69841;SDS011;57138;51.326;-0.068;2022-07-29T09:10:56;5.30;;;1.60;;
69841;SDS011;57138;51.326;-0.068;2022-07-29T09:13:24;10.73;;;1.60;;
69841;SDS011;57138;51.326;-0.068;2022-07-29T09:15:52;7.70;;;1.63;;
69841;SDS011;57138;51.326;-0.068;2022-07-29T09:18:34;4.50;;;1.13;;
69841;SDS011;57138;51.326;-0.068;2022-07-29T09:21:09;6.07;;;1.17;;
69841;SDS011;57138;51.326;-0.068;2022-07-29T09:24:05;5.10;;;1.33;;
69841;SDS011;57138;51.326;-0.068;2022-07-29T09:26:42;7.38;;;1.40;;
69841;SDS011;57138;51.326;-0.068;2022-07-29T09:29:10;7.53;;;1.50;;
69841;SDS011;57138;51.326;-0.068;2022-07-29T09:31:40;7.45;;;1.48;;
69841;SDS011;57138;51.326;-0.068;2022-07-29T09:34:07;5.68;;;0.95;;
69841;SDS011;57138;51.326;-0.068;2022-07-29T09:36:42;7.75;;;1.55;;
69841;SDS011;57138;51.326;-0.068;2022-07-29T09:39:13;13.40;;;1.85;;
69841;SDS011;57138;51.326;-0.068;2022-07-29T09:41:51;7.70;;;2.60;;
69841;SDS011;57138;51.326;-0.068;2022-07-29T09:44:19;6.38;;;1.25;;
69841;SDS011;57138;51.326;-0.068;2022-07-29T09:46:53;10.23;;;1.77;;
69841;SDS011;57138;51.326;-0.068;2022-07-29T09:49:35;8.68;;;1.95;;
69841;SDS011;57138;51.326;-0.068;2022-07-29T09:54:37;8.97;;;1.50;;
69841;SDS011;57138;51.326;-0.068;2022-07-29T09:57:04;6.28;;;1.38;;
69841;SDS011;57138;51.326;-0.068;2022-07-29T09:59:37;5.03;;;1.23;;
69841;SDS011;57138;51.326;-0.068;2022-07-29T10:02:11;8.40;;;1.65;;
69841;SDS011;57138;51.326;-0.068;2022-07-29T10:04:41;8.40;;;1.67;;
69841;SDS011;57138;51.326;-0.068;2022-07-29T10:07:07;5.70;;;1.60;;
69841;SDS011;57138;51.326;-0.068;2022-07-29T10:09:34;7.32;;;1.63;;
69841;SDS011;57138;51.326;-0.068;2022-07-29T10:12:11;5.93;;;1.45;;
69841;SDS011;57138;51.326;-0.068;2022-07-29T10:14:40;8.73;;;1.48;;
69841;SDS011;57138;51.326;-0.068;2022-07-29T10:17:07;5.93;;;1.55;;
69841;SDS011;57138;51.326;-0.068;2022-07-29T10:19:35;7.65;;;2.80;;
69841;SDS011;57138;51.326;-0.068;2022-07-29T10:22:03;8.95;;;1.92;;
69841;SDS011;57138;51.326;-0.068;2022-07-29T10:24:31;12.77;;;2.25;;
69841;SDS011;57138;51.326;-0.068;2022-07-29T10:26:59;12.70;;;2.25;;
69841;SDS011;57138;51.326;-0.068;2022-07-29T10:29:26;7.90;;;1.35;;
69841;SDS011;57138;51.326;-0.068;2022-07-29T10:32:02;5.80;;;1.50;;
69841;SDS011;57138;51.326;-0.068;2022-07-29T10:40:51;9.55;;;1.73;;
69841;SDS011;57138;51.326;-0.068;2022-07-29T10:43:44;7.28;;;1.67;;
69841;SDS011;57138;51.326;-0.068;2022-07-29T10:46:12;8.73;;;2.15;;
69841;SDS011;57138;51.326;-0.068;2022-07-29T10:54:18;7.68;;;1.77;;
69841;SDS011;57138;51.326;-0.068;2022-07-29T11:05:04;13.30;;;1.90;;
69841;SDS011;57138;51.326;-0.068;2022-07-29T11:07:34;6.80;;;1.40;;
69841;SDS011;57138;51.326;-0.068;2022-07-29T11:15:14;7.70;;;1.60;;
69841;SDS011;57138;51.326;-0.068;2022-07-29T11:23:17;8.40;;;1.92;;
69841;SDS011;57138;51.326;-0.068;2022-07-29T11:25:43;8.30;;;1.80;;
69841;SDS011;57138;51.326;-0.068;2022-07-29T11:28:12;8.98;;;1.48;;
69841;SDS011;57138;51.326;-0.068;2022-07-29T11:30:48;7.45;;;2.13;;
69841;SDS011;57138;51.326;-0.068;2022-07-29T11:38:35;12.70;;;2.83;;
69841;SDS011;57138;51.326;-0.068;2022-07-29T11:46:18;5.30;;;1.48;;
69841;SDS011;57138;51.326;-0.068;2022-07-29T11:49:21;10.18;;;1.80;;
69841;SDS011;57138;51.326;-0.068;2022-07-29T11:51:51;5.03;;;1.30;;
69841;SDS011;57138;51.326;-0.068;2022-07-29T11:54:21;8.90;;;1.67;;
69841;SDS011;57138;51.326;-0.068;2022-07-29T11:56:50;6.45;;;1.70;;
69841;SDS011;57138;51.326;-0.068;2022-07-29T11:59:17;7.45;;;1.48;;
69841;SDS011;57138;51.326;-0.068;2022-07-29T12:01:58;10.00;;;1.90;;
69841;SDS011;57138;51.326;-0.068;2022-07-29T12:04:25;8.30;;;1.75;;
69841;SDS011;57138;51.326;-0.068;2022-07-29T12:06:55;8.55;;;1.90;;
69841;SDS011;57138;51.326;-0.068;2022-07-29T12:09:22;7.13;;;1.73;;
69841;SDS011;57138;51.326;-0.068;2022-07-29T12:11:57;5.28;;;1.20;;
69841;SDS011;57138;51.326;-0.068;2022-07-29T12:14:33;12.70;;;2.28;;
69841;SDS011;57138;51.326;-0.068;2022-07-29T12:16:59;6.68;;;1.33;;
69841;SDS011;57138;51.326;-0.068;2022-07-29T12:19:26;7.43;;;1.40;;
69841;SDS011;57138;51.326;-0.068;2022-07-29T12:21:53;8.65;;;1.20;;
69841;SDS011;57138;51.326;-0.068;2022-07-29T12:24:21;9.20;;;1.55;;
69841;SDS011;57138;51.326;-0.068;2022-07-29T12:26:57;5.88;;;1.50;;
69841;SDS011;57138;51.326;-0.068;2022-07-29T12:29:24;7.55;;;2.05;;
69841;SDS011;57138;51.326;-0.068;2022-07-29T12:31:52;7.65;;;1.80;;
69841;SDS011;57138;51.326;-0.068;2022-07-29T12:34:20;4.13;;;1.20;;
69841;SDS011;57138;51.326;-0.068;2022-07-29T12:36:49;5.07;;;1.35;;
69841;SDS011;57138;51.326;-0.068;2022-07-29T12:39:18;10.02;;;2.08;;
69841;SDS011;57138;51.326;-0.068;2022-07-29T12:41:44;4.07;;;1.20;;
69841;SDS011;57138;51.326;-0.068;2022-07-29T12:44:10;7.00;;;1.48;;
69841;SDS011;57138;51.326;-0.068;2022-07-29T12:46:36;5.18;;;1.30;;
69841;SDS011;57138;51.326;-0.068;2022-07-29T12:49:02;4.82;;;1.23;;
69841;SDS011;57138;51.326;-0.068;2022-07-29T12:51:30;5.45;;;1.60;;
69841;SDS011;57138;51.326;-0.068;2022-07-29T12:54:10;6.72;;;1.60;;
69841;SDS011;57138;51.326;-0.068;2022-07-29T12:56:38;5.00;;;1.40;;
69841;SDS011;57138;51.326;-0.068;2022-07-29T13:01:49;7.60;;;2.40;;
69841;SDS011;57138;51.326;-0.068;2022-07-29T13:04:26;4.82;;;1.30;;
69841;SDS011;57138;51.326;-0.068;2022-07-29T13:07:03;5.57;;;1.20;;
69841;SDS011;57138;51.326;-0.068;2022-07-29T13:09:39;7.65;;;1.30;;
69841;SDS011;57138;51.326;-0.068;2022-07-29T13:12:07;4.70;;;1.20;;
69841;SDS011;57138;51.326;-0.068;2022-07-29T13:14:36;3.65;;;1.00;;
69841;SDS011;57138;51.326;-0.068;2022-07-29T13:17:07;8.85;;;1.40;;
69841;SDS011;57138;51.326;-0.068;2022-07-29T13:19:40;6.72;;;1.50;;
69841;SDS011;57138;51.326;-0.068;2022-07-29T13:22:16;6.53;;;1.40;;
69841;SDS011;57138;51.326;-0.068;2022-07-29T13:24:52;6.57;;;1.30;;
69841;SDS011;57138;51.326;-0.068;2022-07-29T13:27:23;7.07;;;1.65;;
69841;SDS011;57138;51.326;-0.068;2022-07-29T13:29:58;8.15;;;1.08;;
69841;SDS011;57138;51.326;-0.068;2022-07-29T13:32:25;5.47;;;1.48;;
69841;SDS011;57138;51.326;-0.068;2022-07-29T13:34:52;5.35;;;1.45;;
69841;SDS011;57138;51.326;-0.068;2022-07-29T13:37:18;8.32;;;1.40;;
69841;SDS011;57138;51.326;-0.068;2022-07-29T13:39:44;6.07;;;1.88;;
69841;SDS011;57138;51.326;-0.068;2022-07-29T13:42:09;3.58;;;1.17;;
69841;SDS011;57138;51.326;-0.068;2022-07-29T13:44:38;6.13;;;1.50;;
69841;SDS011;57138;51.326;-0.068;2022-07-29T13:47:04;4.00;;;1.20;;
69841;SDS011;57138;51.326;-0.068;2022-07-29T13:49:29;3.65;;;1.20;;
69841;SDS011;57138;51.326;-0.068;2022-07-29T13:51:55;8.68;;;1.23;;
69841;SDS011;57138;51.326;-0.068;2022-07-29T13:54:20;7.65;;;1.20;;
69841;SDS011;57138;51.326;-0.068;2022-07-29T13:56:46;5.50;;;1.10;;
69841;SDS011;57138;51.326;-0.068;2022-07-29T13:59:11;4.47;;;1.25;;
69841;SDS011;57138;51.326;-0.068;2022-07-29T14:01:37;8.45;;;1.27;;
69841;SDS011;57138;51.326;-0.068;2022-07-29T14:04:07;6.00;;;1.58;;
69841;SDS011;57138;51.326;-0.068;2022-07-29T14:06:34;3.53;;;1.00;;
69841;SDS011;57138;51.326;-0.068;2022-07-29T14:09:00;7.43;;;1.73;;
69841;SDS011;57138;51.326;-0.068;2022-07-29T14:11:26;4.85;;;1.27;;
69841;SDS011;57138;51.326;-0.068;2022-07-29T14:13:51;5.15;;;1.20;;
69841;SDS011;57138;51.326;-0.068;2022-07-29T14:16:17;7.72;;;1.00;;
69841;SDS011;57138;51.326;-0.068;2022-07-29T14:18:43;4.63;;;1.23;;
69841;SDS011;57138;51.326;-0.068;2022-07-29T14:21:08;6.68;;;1.38;;
69841;SDS011;57138;51.326;-0.068;2022-07-29T14:23:35;7.03;;;1.52;;
69841;SDS011;57138;51.326;-0.068;2022-07-29T14:26:02;5.10;;;1.20;;
69841;SDS011;57138;51.326;-0.068;2022-07-29T14:28:27;5.80;;;1.33;;
69841;SDS011;57138;51.326;-0.068;2022-07-29T14:30:53;5.57;;;2.00;;
69841;SDS011;57138;51.326;-0.068;2022-07-29T14:33:18;4.10;;;1.08;;
69841;SDS011;57138;51.326;-0.068;2022-07-29T14:35:44;5.60;;;1.45;;
69841;SDS011;57138;51.326;-0.068;2022-07-29T14:38:09;8.88;;;1.40;;
69841;SDS011;57138;51.326;-0.068;2022-07-29T14:40:35;4.00;;;1.30;;
69841;SDS011;57138;51.326;-0.068;2022-07-29T14:43:01;6.75;;;1.17;;
69841;SDS011;57138;51.326;-0.068;2022-07-29T14:45:26;9.85;;;1.00;;
69841;SDS011;57138;51.326;-0.068;2022-07-29T14:47:53;4.60;;;1.10;;
69841;SDS011;57138;51.326;-0.068;2022-07-29T14:50:19;5.47;;;1.40;;
69841;SDS011;57138;51.326;-0.068;2022-07-29T14:52:45;4.25;;;1.27;;
69841;SDS011;57138;51.326;-0.068;2022-07-29T14:55:11;4.63;;;1.92;;
69841;SDS011;57138;51.326;-0.068;2022-07-29T14:57:36;3.72;;;1.02;;
69841;SDS011;57138;51.326;-0.068;2022-07-29T15:00:05;3.67;;;1.23;;
69841;SDS011;57138;51.326;-0.068;2022-07-29T15:02:32;7.95;;;1.25;;
69841;SDS011;57138;51.326;-0.068;2022-07-29T15:04:58;5.25;;;1.40;;
69841;SDS011;57138;51.326;-0.068;2022-07-29T15:07:23;10.18;;;1.40;;
69841;SDS011;57138;51.326;-0.068;2022-07-29T15:09:49;5.18;;;1.55;;
69841;SDS011;57138;51.326;-0.068;2022-07-29T15:12:17;4.68;;;1.20;;
69841;SDS011;57138;51.326;-0.068;2022-07-29T15:14:42;11.00;;;1.45;;
69841;SDS011;57138;51.326;-0.068;2022-07-29T15:17:08;4.70;;;1.38;;
69841;SDS011;57138;51.326;-0.068;2022-07-29T15:19:33;7.38;;;1.60;;
69841;SDS011;57138;51.326;-0.068;2022-07-29T15:21:59;5.03;;;1.42;;
69841;SDS011;57138;51.326;-0.068;2022-07-29T15:24:25;3.25;;;1.02;;
69841;SDS011;57138;51.326;-0.068;2022-07-29T15:26:50;4.65;;;1.15;;
69841;SDS011;57138;51.326;-0.068;2022-07-29T15:29:16;4.72;;;1.30;;
69841;SDS011;57138;51.326;-0.068;2022-07-29T15:31:42;8.40;;;1.60;;
69841;SDS011;57138;51.326;-0.068;2022-07-29T15:34:08;5.13;;;1.23;;
69841;SDS011;57138;51.326;-0.068;2022-07-29T15:36:34;7.90;;;1.48;;
69841;SDS011;57138;51.326;-0.068;2022-07-29T15:39:00;7.25;;;1.60;;
69841;SDS011;57138;51.326;-0.068;2022-07-29T15:41:26;5.93;;;1.40;;